Terminal Aerodrome Forecast
Issued by NWS

Home | Current Version | Previous Version | Graphics & Text | Print | Product List | Glossary On
Versions: 1 2 3 4 5 6 7 8 9 10 11 12 13 14 15 16 17 18 19 20 21 22 23 24 25 26 27 28
000
FTUS43 KBIS 301732
TAFDIK
TAF
KDIK 301732Z 3018/0118 12010KT P6SM VCTS SCT050CB SCT070 BKN100
     FM302100 15012KT P6SM VCTS BKN050CB OVC100
      TEMPO 3023/0102 VRB15G25KT 3SM TSRA SCT020 OVC040CB
     FM010300 11006KT P6SM VCSH BKN050 OVC100
     FM010600 06005KT P6SM BKN035
     FM011000 02006KT 6SM BR SCT015 OVC025=

USA.gov is the U.S. government's official web portal to all federal, state and local government web resources and services.